createdAt,value
2023-11-30T00:01:03.960Z,101834.47
2023-11-30T00:03:33.925Z,101833.28
2023-11-30T00:06:03.638Z,101836.75
2023-11-30T00:08:33.341Z,101835.13
2023-11-30T00:11:02.985Z,101829.19
2023-11-30T00:13:32.816Z,101840.66
2023-11-30T00:16:02.474Z,101833.22
2023-11-30T00:18:32.850Z,101838.28
2023-11-30T00:21:02.646Z,101834.69
2023-11-30T00:23:32.256Z,101839.41
2023-11-30T00:26:02.020Z,101827.94
2023-11-30T00:28:31.700Z,101840.47
2023-11-30T00:31:01.402Z,101838.97
2023-11-30T00:33:31.120Z,101845.50
2023-11-30T00:36:00.859Z,101845.13
2023-11-30T00:38:30.578Z,101847.16
2023-11-30T00:41:00.293Z,101857.53
2023-11-30T00:43:29.977Z,101838.44
2023-11-30T00:46:06.836Z,101837.16
2023-11-30T00:48:39.573Z,101837.88
2023-11-30T00:51:12.731Z,101844.25
2023-11-30T00:53:42.809Z,101842.28
2023-11-30T00:56:14.192Z,101836.88
2023-11-30T00:58:43.892Z,101829.56
2023-11-30T01:01:13.592Z,101836.19
2023-11-30T01:03:43.378Z,101839.25
2023-11-30T01:06:13.231Z,101846.56
2023-11-30T01:08:42.940Z,101844.53
2023-11-30T01:11:12.650Z,101838.06
2023-11-30T01:13:42.302Z,101844.81
2023-11-30T01:16:12.416Z,101831.59
2023-11-30T01:18:42.249Z,101835.44
2023-11-30T01:21:12.200Z,101837.59
2023-11-30T01:23:41.971Z,101832.97
2023-11-30T01:26:11.615Z,101832.97
2023-11-30T01:28:41.639Z,101829.50
2023-11-30T01:31:11.476Z,101825.88
2023-11-30T01:33:41.125Z,101828.22
2023-11-30T01:36:11.240Z,101828.06
2023-11-30T01:38:40.931Z,101838.75
2023-11-30T01:41:10.879Z,101827.44
2023-11-30T01:43:40.479Z,101829.78
2023-11-30T01:46:10.358Z,101818.09
2023-11-30T01:48:40.179Z,101824.41
2023-11-30T01:51:10.879Z,101820.44
2023-11-30T01:53:40.802Z,101826.28
2023-11-30T01:56:11.867Z,101828.03
2023-11-30T01:58:41.640Z,101822.91
2023-11-30T02:01:11.481Z,101818.22
2023-11-30T02:03:41.247Z,101805.78
2023-11-30T02:06:11.504Z,101812.56
2023-11-30T02:08:41.131Z,101812.88
2023-11-30T02:11:10.897Z,101803.06
2023-11-30T02:13:40.823Z,101802.94
2023-11-30T02:16:10.992Z,101802.16
2023-11-30T02:18:40.714Z,101803.59
2023-11-30T02:21:10.639Z,101791.63
2023-11-30T02:23:40.307Z,101776.94
2023-11-30T02:26:10.537Z,101780.88
2023-11-30T02:28:40.133Z,101782.59
2023-11-30T02:31:09.769Z,101771.00
2023-11-30T02:33:39.542Z,101758.84
2023-11-30T02:36:09.878Z,101767.34
2023-11-30T02:38:42.493Z,101766.13
2023-11-30T02:41:12.361Z,101745.50
2023-11-30T02:43:41.968Z,101744.59
2023-11-30T02:46:12.153Z,101742.50
2023-11-30T02:48:41.987Z,101742.50
2023-11-30T02:51:13.396Z,101735.78
2023-11-30T02:53:43.120Z,101729.13
2023-11-30T02:56:13.103Z,101725.28
2023-11-30T02:58:42.710Z,101723.59
2023-11-30T03:01:12.350Z,101738.59
2023-11-30T03:03:42.143Z,101726.72
2023-11-30T03:06:15.287Z,101727.81
2023-11-30T03:08:45.088Z,101726.72
2023-11-30T03:11:14.749Z,101721.16
2023-11-30T03:13:44.476Z,101717.25
2023-11-30T03:16:14.130Z,101703.69
2023-11-30T03:18:43.828Z,101692.06
2023-11-30T03:21:20.502Z,101687.72
2023-11-30T03:23:52.067Z,101679.03
2023-11-30T03:26:21.785Z,101665.91
2023-11-30T03:28:51.835Z,101667.59
2023-11-30T03:31:21.471Z,101660.94
2023-11-30T03:33:51.717Z,101649.94
2023-11-30T03:36:21.435Z,101644.03
2023-11-30T03:38:56.259Z,101645.84
2023-11-30T03:41:26.265Z,101646.44
2023-11-30T03:43:56.431Z,101647.22
2023-11-30T03:46:29.540Z,101641.72
2023-11-30T03:48:59.256Z,101630.59
2023-11-30T03:51:28.921Z,101643.59
2023-11-30T03:53:58.749Z,101644.81
2023-11-30T03:56:28.352Z,101639.84
2023-11-30T03:58:57.960Z,101633.97
2023-11-30T04:01:27.771Z,101631.56
2023-11-30T04:03:57.457Z,101623.19
2023-11-30T04:06:27.201Z,101621.88
2023-11-30T04:08:57.244Z,101615.78
2023-11-30T04:11:26.959Z,101622.31
2023-11-30T04:13:56.660Z,101623.31
2023-11-30T04:16:26.354Z,101614.78
2023-11-30T04:18:56.305Z,101616.09
2023-11-30T04:21:26.097Z,101610.78
2023-11-30T04:23:55.777Z,101615.69
2023-11-30T04:26:25.487Z,101600.41
2023-11-30T04:28:55.476Z,101599.41
2023-11-30T04:31:25.398Z,101595.88
2023-11-30T04:33:55.166Z,101594.38
2023-11-30T04:36:25.030Z,101586.41
2023-11-30T04:38:54.780Z,101594.19
2023-11-30T04:41:24.471Z,101581.97
2023-11-30T04:43:54.311Z,101567.09
2023-11-30T04:46:24.286Z,101565.19
2023-11-30T04:48:54.179Z,101553.03
2023-11-30T04:51:24.537Z,101552.19
2023-11-30T04:53:59.980Z,101549.13
2023-11-30T04:56:32.769Z,101546.03
2023-11-30T04:59:02.595Z,101539.47
2023-11-30T05:01:34.157Z,101528.41
2023-11-30T05:04:05.466Z,101528.66
2023-11-30T05:06:35.271Z,101513.19
2023-11-30T05:09:05.702Z,101508.53
2023-11-30T05:11:44.004Z,101500.81
2023-11-30T05:14:16.960Z,101508.16
2023-11-30T05:16:46.744Z,101506.94
2023-11-30T05:19:19.201Z,101504.66
2023-11-30T05:21:48.858Z,101495.59
2023-11-30T05:24:20.251Z,101497.41
2023-11-30T05:26:49.936Z,101494.84
2023-11-30T05:29:19.609Z,101499.66
2023-11-30T05:31:49.459Z,101484.63
2023-11-30T05:34:19.213Z,101480.25
2023-11-30T05:36:48.873Z,101494.25
2023-11-30T05:39:21.573Z,101492.22
2023-11-30T05:41:51.358Z,101494.00
2023-11-30T05:44:21.789Z,101493.88
2023-11-30T05:46:53.057Z,101499.22
2023-11-30T05:49:22.757Z,101502.97
2023-11-30T05:51:52.581Z,101495.50
2023-11-30T05:54:22.305Z,101501.59
2023-11-30T05:56:52.088Z,101504.03
2023-11-30T05:59:21.883Z,101503.53
2023-11-30T06:01:51.690Z,101510.72
2023-11-30T06:04:21.708Z,101505.59
2023-11-30T06:06:51.611Z,101510.69
2023-11-30T06:09:21.300Z,101512.81
2023-11-30T06:11:51.075Z,101511.59
2023-11-30T06:14:21.648Z,101526.34
2023-11-30T06:16:51.377Z,101518.97
2023-11-30T06:19:21.049Z,101518.06
2023-11-30T06:21:50.727Z,101516.47
2023-11-30T06:24:20.398Z,101523.59
2023-11-30T06:26:50.013Z,101523.94
2023-11-30T06:29:20.039Z,101519.44
2023-11-30T06:31:49.643Z,101518.91
2023-11-30T06:34:19.285Z,101522.00
2023-11-30T06:36:48.918Z,101523.53
2023-11-30T06:39:18.601Z,101528.09
2023-11-30T06:41:53.519Z,101529.81
2023-11-30T06:44:23.590Z,101522.41
2023-11-30T06:46:53.344Z,101525.97
2023-11-30T06:49:23.121Z,101516.16
2023-11-30T06:51:52.705Z,101513.81
2023-11-30T06:54:23.339Z,101508.41
2023-11-30T06:56:52.966Z,101516.84
2023-11-30T06:59:22.540Z,101519.38
2023-11-30T07:01:52.205Z,101511.28
2023-11-30T07:04:21.996Z,101509.75
2023-11-30T07:06:51.668Z,101517.34
2023-11-30T07:09:21.352Z,101511.47
2023-11-30T07:11:50.940Z,101520.72
2023-11-30T07:14:20.542Z,101517.34
2023-11-30T07:16:50.198Z,101519.88
2023-11-30T07:19:19.777Z,101522.91
2023-11-30T07:21:51.956Z,101521.22
2023-11-30T07:24:21.638Z,101522.06
2023-11-30T07:26:51.256Z,101529.13
2023-11-30T07:29:23.270Z,101516.66
2023-11-30T07:31:55.172Z,101528.47
2023-11-30T07:34:24.756Z,101521.38
2023-11-30T07:36:54.383Z,101520.88
2023-11-30T07:39:24.043Z,101526.09
2023-11-30T07:41:53.689Z,101523.22
2023-11-30T07:44:23.650Z,101524.75
2023-11-30T07:46:53.303Z,101522.22
2023-11-30T07:49:23.088Z,101531.63
2023-11-30T07:51:52.687Z,101521.03
2023-11-30T07:54:22.387Z,101525.72
2023-11-30T07:56:52.069Z,101517.94
2023-11-30T07:59:21.670Z,101532.75
2023-11-30T08:01:51.403Z,101529.75
2023-11-30T08:04:24.319Z,101546.06
2023-11-30T08:06:54.056Z,101538.84
2023-11-30T08:09:23.925Z,101535.28
2023-11-30T08:11:53.654Z,101551.13
2023-11-30T08:14:23.677Z,101556.50
2023-11-30T08:16:53.286Z,101553.94
2023-11-30T08:19:23.823Z,101553.06
2023-11-30T08:21:53.532Z,101547.50
2023-11-30T08:24:23.120Z,101553.41
2023-11-30T08:26:53.192Z,101548.53
2023-11-30T08:29:22.833Z,101550.84
2023-11-30T08:31:52.499Z,101546.97
2023-11-30T08:34:22.230Z,101559.72
2023-11-30T08:36:51.970Z,101554.53
2023-11-30T08:39:26.083Z,101558.22
2023-11-30T08:41:56.169Z,101554.00
2023-11-30T08:44:25.853Z,101553.63
2023-11-30T08:46:56.266Z,101550.28
2023-11-30T08:49:25.922Z,101550.09
2023-11-30T08:51:55.859Z,101550.88
2023-11-30T08:54:26.757Z,101555.25
2023-11-30T08:56:56.467Z,101557.78
2023-11-30T08:59:26.112Z,101553.56
2023-11-30T09:01:55.956Z,101562.38
2023-11-30T09:04:25.738Z,101555.66
2023-11-30T09:06:55.375Z,101559.88
2023-11-30T09:09:25.031Z,101564.22
2023-11-30T09:11:54.708Z,101563.03
2023-11-30T09:14:24.384Z,101562.38
2023-11-30T09:16:54.220Z,101556.78
2023-11-30T09:19:24.022Z,101555.25
2023-11-30T09:21:53.796Z,101556.38
2023-11-30T09:24:24.448Z,101556.88
2023-11-30T09:26:55.721Z,101555.41
2023-11-30T09:29:25.434Z,101565.31
2023-11-30T09:31:56.291Z,101569.97
2023-11-30T09:34:27.335Z,101577.03
2023-11-30T09:36:56.952Z,101578.13
2023-11-30T09:39:26.603Z,101587.91
2023-11-30T09:42:00.345Z,101588.72
2023-11-30T09:44:30.769Z,101583.03
2023-11-30T09:47:00.579Z,101595.94
2023-11-30T09:49:30.235Z,101591.09
2023-11-30T09:54:29.193Z,101579.53
2023-11-30T09:56:59.098Z,101584.06
2023-11-30T09:59:30.201Z,101576.13
2023-11-30T10:02:05.558Z,101572.00
2023-11-30T10:04:37.161Z,101569.78
2023-11-30T10:07:06.928Z,101565.00
2023-11-30T10:09:38.525Z,101568.31
2023-11-30T10:12:08.628Z,101559.72
2023-11-30T10:14:38.520Z,101564.13
2023-11-30T10:17:09.170Z,101567.31
2023-11-30T10:19:39.854Z,101570.63
2023-11-30T10:22:09.691Z,101565.72
2023-11-30T10:24:39.394Z,101582.69
2023-11-30T10:27:09.180Z,101584.06
2023-11-30T10:29:39.753Z,101584.09
2023-11-30T10:32:09.653Z,101570.28
2023-11-30T10:34:45.944Z,101566.09
2023-11-30T10:37:18.257Z,101563.22
2023-11-30T10:39:49.110Z,101572.59
2023-11-30T10:42:19.585Z,101567.13
2023-11-30T10:44:50.419Z,101558.00
2023-11-30T10:47:20.116Z,101569.44
2023-11-30T10:49:51.082Z,101567.13
2023-11-30T10:52:20.840Z,101561.63
2023-11-30T10:54:56.701Z,101556.16
2023-11-30T10:57:26.528Z,101548.56
2023-11-30T11:00:05.499Z,101549.28
2023-11-30T11:02:42.254Z,101543.66
2023-11-30T11:05:18.637Z,101544.03
2023-11-30T11:07:52.690Z,101549.00
2023-11-30T11:10:29.584Z,101543.81
2023-11-30T11:13:02.771Z,101538.28
2023-11-30T11:15:34.281Z,101542.19
2023-11-30T11:18:07.256Z,101528.38
2023-11-30T11:20:39.073Z,101530.84
2023-11-30T11:23:11.542Z,101531.59
2023-11-30T11:25:44.178Z,101524.41
2023-11-30T11:28:16.844Z,101525.22
2023-11-30T11:30:49.015Z,101513.59
2023-11-30T11:33:20.109Z,101520.53
2023-11-30T11:35:49.974Z,101519.63
2023-11-30T11:38:21.548Z,101524.31
2023-11-30T11:40:51.160Z,101524.53
2023-11-30T11:43:20.761Z,101520.47
2023-11-30T11:45:50.614Z,101514.94
2023-11-30T11:48:20.374Z,101519.09
2023-11-30T11:51:00.312Z,101516.19
2023-11-30T11:53:29.956Z,101513.19
2023-11-30T11:56:07.452Z,101521.16
2023-11-30T11:58:41.882Z,101509.47
2023-11-30T12:01:11.769Z,101506.41
2023-11-30T12:03:50.792Z,101513.09
2023-11-30T12:06:33.242Z,101512.63
2023-11-30T12:09:23.152Z,101513.06
2023-11-30T12:11:53.509Z,101514.00
2023-11-30T12:14:23.246Z,101511.78
2023-11-30T12:16:53.018Z,101494.28
2023-11-30T12:19:22.751Z,101499.34
2023-11-30T12:21:52.472Z,101497.13
2023-11-30T12:24:24.118Z,101502.50
2023-11-30T12:26:53.828Z,101505.03
2023-11-30T12:29:23.979Z,101520.53
2023-11-30T12:31:55.780Z,101518.75
2023-11-30T12:34:26.270Z,101517.69
2023-11-30T12:36:56.908Z,101525.81
2023-11-30T12:39:26.530Z,101525.66
2023-11-30T12:41:56.172Z,101527.50
2023-11-30T12:44:25.760Z,101527.66
2023-11-30T12:46:55.512Z,101530.19
2023-11-30T12:49:25.177Z,101523.56
2023-11-30T12:51:54.853Z,101519.06
2023-11-30T12:54:24.661Z,101534.31
2023-11-30T12:56:54.375Z,101525.16
2023-11-30T12:59:24.035Z,101533.88
2023-11-30T13:01:56.123Z,101534.47
2023-11-30T13:04:26.303Z,101541.53
2023-11-30T13:06:56.026Z,101542.38
2023-11-30T13:09:25.694Z,101538.63
2023-11-30T13:11:55.861Z,101551.72
2023-11-30T13:14:25.514Z,101544.81
2023-11-30T13:16:55.942Z,101546.63
2023-11-30T13:19:25.938Z,101541.88
2023-11-30T13:21:56.037Z,101546.66
2023-11-30T13:24:25.889Z,101540.84
2023-11-30T13:26:56.497Z,101547.34
2023-11-30T13:29:26.133Z,101541.19
2023-11-30T13:31:55.770Z,101546.38
2023-11-30T13:34:25.410Z,101543.19
2023-11-30T13:36:55.083Z,101540.63
2023-11-30T13:39:24.897Z,101537.41
2023-11-30T13:41:54.596Z,101541.19
2023-11-30T13:44:24.206Z,101543.84
2023-11-30T13:46:54.007Z,101533.63
2023-11-30T13:49:24.416Z,101543.91
2023-11-30T13:51:54.368Z,101532.34
2023-11-30T13:54:25.020Z,101536.25
2023-11-30T13:56:55.131Z,101534.06
2023-11-30T13:59:24.740Z,101539.97
2023-11-30T14:01:54.482Z,101543.50
2023-11-30T14:04:24.158Z,101535.13
2023-11-30T14:06:59.207Z,101541.81
2023-11-30T14:09:29.089Z,101539.81
2023-11-30T14:11:59.039Z,101535.28
2023-11-30T14:14:29.073Z,101530.78
2023-11-30T14:16:58.847Z,101540.44
2023-11-30T14:19:28.500Z,101546.06
2023-11-30T14:21:58.277Z,101539.03
2023-11-30T14:24:28.147Z,101537.19
2023-11-30T14:26:59.425Z,101541.00
2023-11-30T14:29:29.156Z,101538.84
2023-11-30T14:31:58.886Z,101533.16
2023-11-30T14:34:28.577Z,101534.50
2023-11-30T14:36:58.130Z,101534.00
2023-11-30T14:39:30.763Z,101532.84
2023-11-30T14:42:00.781Z,101529.31
2023-11-30T14:44:31.335Z,101531.44
2023-11-30T14:47:01.915Z,101521.53
2023-11-30T14:49:31.731Z,101519.31
2023-11-30T14:52:01.576Z,101521.69
2023-11-30T14:54:31.284Z,101515.66
2023-11-30T14:57:02.062Z,101523.94
2023-11-30T14:59:34.240Z,101524.56
2023-11-30T15:02:03.995Z,101520.19
2023-11-30T15:04:34.243Z,101514.66
2023-11-30T15:07:04.026Z,101510.28
2023-11-30T15:09:33.732Z,101513.94
2023-11-30T15:12:03.387Z,101506.91
2023-11-30T15:14:33.009Z,101503.97
2023-11-30T15:17:02.670Z,101506.91
2023-11-30T15:19:32.275Z,101504.09
2023-11-30T15:22:01.933Z,101501.84
2023-11-30T15:24:31.605Z,101515.56
2023-11-30T15:27:01.248Z,101511.84
2023-11-30T15:29:30.932Z,101504.53
2023-11-30T15:32:00.677Z,101498.47
2023-11-30T15:34:31.047Z,101498.47
2023-11-30T15:37:00.672Z,101498.88
2023-11-30T15:39:30.310Z,101500.88
2023-11-30T15:42:00.218Z,101499.19
2023-11-30T15:44:29.972Z,101496.91
2023-11-30T15:46:59.611Z,101489.31
2023-11-30T15:49:30.534Z,101496.50
2023-11-30T15:52:00.396Z,101498.06
2023-11-30T15:54:30.144Z,101495.22
2023-11-30T15:57:00.053Z,101493.50
2023-11-30T15:59:29.724Z,101493.09
2023-11-30T16:01:59.530Z,101493.53
2023-11-30T16:04:29.343Z,101502.88
2023-11-30T16:06:59.516Z,101494.44
2023-11-30T16:09:29.264Z,101491.31
2023-11-30T16:11:59.035Z,101495.94
2023-11-30T16:14:28.667Z,101488.34
2023-11-30T16:16:58.332Z,101488.06
2023-11-30T16:19:28.140Z,101493.94
2023-11-30T16:21:59.470Z,101492.69
2023-11-30T16:24:29.333Z,101499.38
2023-11-30T16:26:59.363Z,101486.91
2023-11-30T16:29:28.986Z,101480.16
2023-11-30T16:31:58.684Z,101482.97
2023-11-30T16:34:33.567Z,101485.66
2023-11-30T16:37:03.342Z,101480.03
2023-11-30T16:39:32.997Z,101483.16
2023-11-30T16:42:02.634Z,101488.75
2023-11-30T16:44:32.349Z,101477.94
2023-11-30T16:47:02.037Z,101471.69
2023-11-30T16:49:31.708Z,101475.09
2023-11-30T16:52:01.314Z,101475.13
2023-11-30T16:54:31.315Z,101475.81
2023-11-30T16:57:02.507Z,101480.03
2023-11-30T16:59:32.214Z,101479.06
2023-11-30T17:02:01.974Z,101481.75
2023-11-30T17:04:31.663Z,101477.13
2023-11-30T17:07:02.191Z,101476.25
2023-11-30T17:09:31.970Z,101479.06
2023-11-30T17:12:01.590Z,101481.31
2023-11-30T17:14:31.201Z,101486.53
2023-11-30T17:17:03.966Z,101482.16
2023-11-30T17:19:34.282Z,101477.38
2023-11-30T17:22:03.986Z,101480.31
2023-11-30T17:24:35.058Z,101482.72
2023-11-30T17:27:05.587Z,101471.47
2023-11-30T17:29:40.332Z,101478.50
2023-11-30T17:32:10.664Z,101488.38
2023-11-30T17:34:40.835Z,101488.09
2023-11-30T17:37:11.262Z,101489.63
2023-11-30T17:39:42.557Z,101485.28
2023-11-30T17:42:12.257Z,101491.19
2023-11-30T17:44:41.857Z,101490.09
2023-11-30T17:47:11.510Z,101492.88
2023-11-30T17:49:41.322Z,101490.63
2023-11-30T17:52:11.028Z,101486.13
2023-11-30T17:54:40.656Z,101482.75
2023-11-30T17:57:10.326Z,101478.09
2023-11-30T17:59:40.004Z,101476.81
2023-11-30T18:02:09.853Z,101474.28
2023-11-30T18:04:39.563Z,101469.38
2023-11-30T18:07:12.454Z,101460.50
2023-11-30T18:09:42.134Z,101461.59
2023-11-30T18:12:12.148Z,101454.28
2023-11-30T18:14:44.065Z,101454.28
2023-11-30T18:17:13.765Z,101437.25
2023-11-30T18:19:43.465Z,101444.84
2023-11-30T18:22:13.730Z,101442.31
2023-11-30T18:24:43.416Z,101439.50
2023-11-30T18:27:13.080Z,101437.38
2023-11-30T18:29:42.877Z,101433.56
2023-11-30T18:32:12.566Z,101428.78
2023-11-30T18:34:42.241Z,101422.75
2023-11-30T18:37:12.235Z,101421.00
2023-11-30T18:39:41.956Z,101429.47
2023-11-30T18:42:11.698Z,101410.47
2023-11-30T18:44:41.320Z,101416.09
2023-11-30T18:47:17.053Z,101406.97
2023-11-30T18:49:46.711Z,101404.94
2023-11-30T18:52:19.144Z,101411.47
2023-11-30T18:54:50.884Z,101410.06
2023-11-30T18:57:20.602Z,101415.13
2023-11-30T18:59:50.484Z,101399.31
2023-11-30T19:02:20.215Z,101394.00
2023-11-30T19:04:50.083Z,101390.22
2023-11-30T19:07:19.710Z,101397.38
2023-11-30T19:09:50.382Z,101401.34
2023-11-30T19:12:20.316Z,101384.94
2023-11-30T19:14:50.046Z,101395.84
2023-11-30T19:17:20.752Z,101392.31
2023-11-30T19:19:50.528Z,101386.66
2023-11-30T19:22:20.254Z,101392.00
2023-11-30T19:24:50.188Z,101395.38
2023-11-30T19:27:19.866Z,101384.00
2023-11-30T19:29:49.650Z,101381.72
2023-11-30T19:32:19.396Z,101384.41
2023-11-30T19:34:48.987Z,101394.41
2023-11-30T19:37:18.633Z,101387.63
2023-11-30T19:39:48.496Z,101384.13
2023-11-30T19:42:18.118Z,101381.72
2023-11-30T19:44:47.732Z,101386.25
2023-11-30T19:47:17.391Z,101379.59
2023-11-30T19:49:46.995Z,101379.91
2023-11-30T19:52:16.631Z,101384.53
2023-11-30T19:54:46.298Z,101386.50
2023-11-30T19:57:18.887Z,101378.50
2023-11-30T19:59:48.512Z,101381.75
2023-11-30T20:02:18.245Z,101377.81
2023-11-30T20:04:47.989Z,101376.81
2023-11-30T20:07:17.788Z,101371.72
2023-11-30T20:09:47.476Z,101367.38
2023-11-30T20:12:17.120Z,101362.44
2023-11-30T20:14:46.923Z,101363.00
2023-11-30T20:17:16.709Z,101375.97
2023-11-30T20:19:46.319Z,101380.31
2023-11-30T20:22:16.171Z,101389.63
2023-11-30T20:24:45.964Z,101391.84
2023-11-30T20:27:15.618Z,101391.16
2023-11-30T20:29:45.273Z,101394.13
2023-11-30T20:32:15.050Z,101385.53
2023-11-30T20:34:44.897Z,101384.00
2023-11-30T20:37:14.516Z,101393.53
2023-11-30T20:39:44.767Z,101386.50
2023-11-30T20:42:14.486Z,101387.19
2023-11-30T20:44:44.126Z,101387.34
2023-11-30T20:47:14.084Z,101373.13
2023-11-30T20:49:43.758Z,101385.53
2023-11-30T20:52:13.428Z,101383.56
2023-11-30T20:54:43.151Z,101380.47
2023-11-30T20:57:14.077Z,101380.75
2023-11-30T20:59:44.158Z,101377.63
2023-11-30T21:02:15.615Z,101379.19
2023-11-30T21:04:45.340Z,101384.53
2023-11-30T21:07:14.974Z,101382.44
2023-11-30T21:09:44.669Z,101384.88
2023-11-30T21:12:16.297Z,101381.75
2023-11-30T21:14:46.147Z,101384.41
2023-11-30T21:17:15.753Z,101377.06
2023-11-30T21:19:45.392Z,101399.09
2023-11-30T21:22:15.292Z,101398.88
2023-11-30T21:24:47.511Z,101393.72
2023-11-30T21:27:17.215Z,101396.81
2023-11-30T21:29:46.952Z,101392.06
2023-11-30T21:32:16.591Z,101388.50
2023-11-30T21:34:46.510Z,101397.06
2023-11-30T21:37:16.146Z,101398.63
2023-11-30T21:39:46.029Z,101406.59
2023-11-30T21:42:15.702Z,101411.25
2023-11-30T21:44:45.363Z,101403.47
2023-11-30T21:47:15.512Z,101403.06
2023-11-30T21:49:50.774Z,101411.53
2023-11-30T21:52:20.509Z,101409.41
2023-11-30T21:54:50.198Z,101409.75
2023-11-30T21:57:19.908Z,101415.59
2023-11-30T21:59:49.769Z,101404.50
2023-11-30T22:02:19.559Z,101402.63
2023-11-30T22:04:49.460Z,101403.06
2023-11-30T22:07:19.149Z,101402.75
2023-11-30T22:09:49.044Z,101413.94
2023-11-30T22:12:18.771Z,101400.22
2023-11-30T22:14:48.381Z,101404.50
2023-11-30T22:17:18.129Z,101404.13
2023-11-30T22:19:48.034Z,101404.44
2023-11-30T22:22:17.760Z,101403.84
2023-11-30T22:24:48.017Z,101396.31
2023-11-30T22:27:17.817Z,101397.47
2023-11-30T22:29:47.528Z,101394.19
2023-11-30T22:32:17.360Z,101394.03
2023-11-30T22:34:47.262Z,101399.59
2023-11-30T22:37:17.406Z,101403.03
2023-11-30T22:39:47.191Z,101415.09
2023-11-30T22:42:17.372Z,101418.41
2023-11-30T22:44:47.214Z,101419.91
2023-11-30T22:47:17.584Z,101417.81
2023-11-30T22:49:47.649Z,101424.84
2023-11-30T22:52:18.269Z,101438.28
2023-11-30T22:54:48.054Z,101435.00
2023-11-30T22:57:17.897Z,101432.94
2023-11-30T22:59:47.777Z,101444.06
2023-11-30T23:02:17.621Z,101439.59
2023-11-30T23:04:47.649Z,101440.44
2023-11-30T23:07:17.611Z,101446.41
2023-11-30T23:09:47.503Z,101453.00
2023-11-30T23:12:17.308Z,101452.78
2023-11-30T23:14:47.101Z,101448.91
2023-11-30T23:17:16.796Z,101452.06
2023-11-30T23:19:46.528Z,101462.88
2023-11-30T23:22:16.416Z,101468.88
2023-11-30T23:24:46.125Z,101465.56
2023-11-30T23:27:15.791Z,101469.72
2023-11-30T23:29:48.785Z,101468.91
2023-11-30T23:32:18.526Z,101466.19
2023-11-30T23:34:48.222Z,101473.63
2023-11-30T23:37:17.921Z,101475.13
2023-11-30T23:39:47.587Z,101469.63
2023-11-30T23:42:17.363Z,101466.31
2023-11-30T23:44:47.177Z,101456.97
2023-11-30T23:47:16.844Z,101458.06
2023-11-30T23:49:46.473Z,101461.34
2023-11-30T23:52:16.405Z,101450.41
2023-11-30T23:54:47.434Z,101457.56
2023-11-30T23:57:17.106Z,101466.31
2023-11-30T23:59:46.766Z,101464.81
